sensor_id;sensor_type;location;lat;lon;timestamp;P1;durP1;ratioP1;P2;durP2;ratioP2
71959;SDS011;59832;51.146;14.024;2023-05-10T00:01:54;1.60;;;1.50;;
71959;SDS011;59832;51.146;14.024;2023-05-10T00:04:20;2.15;;;1.65;;
71959;SDS011;59832;51.146;14.024;2023-05-10T00:06:47;3.00;;;1.40;;
71959;SDS011;59832;51.146;14.024;2023-05-10T00:09:14;1.45;;;1.25;;
71959;SDS011;59832;51.146;14.024;2023-05-10T00:11:40;1.63;;;1.52;;
71959;SDS011;59832;51.146;14.024;2023-05-10T00:14:06;1.50;;;1.40;;
71959;SDS011;59832;51.146;14.024;2023-05-10T00:16:33;1.90;;;1.70;;
71959;SDS011;59832;51.146;14.024;2023-05-10T00:18:59;1.50;;;1.40;;
71959;SDS011;59832;51.146;14.024;2023-05-10T00:21:26;2.55;;;1.55;;
71959;SDS011;59832;51.146;14.024;2023-05-10T00:23:54;2.72;;;1.30;;
71959;SDS011;59832;51.146;14.024;2023-05-10T00:26:21;1.42;;;1.33;;
71959;SDS011;59832;51.146;14.024;2023-05-10T00:28:47;1.48;;;1.38;;
71959;SDS011;59832;51.146;14.024;2023-05-10T00:31:14;1.57;;;1.47;;
71959;SDS011;59832;51.146;14.024;2023-05-10T00:33:40;1.40;;;1.30;;
71959;SDS011;59832;51.146;14.024;2023-05-10T00:36:07;1.60;;;1.50;;
71959;SDS011;59832;51.146;14.024;2023-05-10T00:38:33;1.83;;;1.60;;
71959;SDS011;59832;51.146;14.024;2023-05-10T00:41:00;3.65;;;1.45;;
71959;SDS011;59832;51.146;14.024;2023-05-10T00:43:27;2.35;;;1.65;;
71959;SDS011;59832;51.146;14.024;2023-05-10T00:45:53;1.40;;;1.30;;
71959;SDS011;59832;51.146;14.024;2023-05-10T00:48:20;1.80;;;1.50;;
71959;SDS011;59832;51.146;14.024;2023-05-10T00:50:47;2.28;;;1.40;;
71959;SDS011;59832;51.146;14.024;2023-05-10T00:53:14;2.22;;;1.50;;
71959;SDS011;59832;51.146;14.024;2023-05-10T00:55:41;1.75;;;1.35;;
71959;SDS011;59832;51.146;14.024;2023-05-10T00:58:07;2.17;;;1.55;;
71959;SDS011;59832;51.146;14.024;2023-05-10T01:00:34;1.37;;;1.27;;
71959;SDS011;59832;51.146;14.024;2023-05-10T01:03:01;1.55;;;1.45;;
71959;SDS011;59832;51.146;14.024;2023-05-10T01:05:28;1.40;;;1.30;;
71959;SDS011;59832;51.146;14.024;2023-05-10T01:07:55;1.30;;;1.20;;
71959;SDS011;59832;51.146;14.024;2023-05-10T01:10:22;3.55;;;1.60;;
71959;SDS011;59832;51.146;14.024;2023-05-10T01:12:48;1.60;;;1.40;;
71959;SDS011;59832;51.146;14.024;2023-05-10T01:15:15;1.63;;;1.43;;
71959;SDS011;59832;51.146;14.024;2023-05-10T01:17:44;1.60;;;1.50;;
71959;SDS011;59832;51.146;14.024;2023-05-10T01:20:13;1.50;;;1.40;;
71959;SDS011;59832;51.146;14.024;2023-05-10T01:25:31;1.98;;;1.52;;
71959;SDS011;59832;51.146;14.024;2023-05-10T01:34:02;3.05;;;1.40;;
71959;SDS011;59832;51.146;14.024;2023-05-10T01:36:41;1.40;;;1.30;;
71959;SDS011;59832;51.146;14.024;2023-05-10T01:39:24;2.75;;;1.65;;
71959;SDS011;59832;51.146;14.024;2023-05-10T01:42:11;1.83;;;1.40;;
71959;SDS011;59832;51.146;14.024;2023-05-10T01:44:43;3.38;;;1.40;;
71959;SDS011;59832;51.146;14.024;2023-05-10T01:47:17;3.15;;;1.40;;
71959;SDS011;59832;51.146;14.024;2023-05-10T01:49:54;2.05;;;1.20;;
71959;SDS011;59832;51.146;14.024;2023-05-10T01:52:31;3.83;;;1.33;;
71959;SDS011;59832;51.146;14.024;2023-05-10T01:55:04;1.55;;;1.40;;
71959;SDS011;59832;51.146;14.024;2023-05-10T01:57:33;1.60;;;1.50;;
71959;SDS011;59832;51.146;14.024;2023-05-10T02:00:02;3.10;;;1.55;;
71959;SDS011;59832;51.146;14.024;2023-05-10T02:02:33;3.20;;;1.58;;
71959;SDS011;59832;51.146;14.024;2023-05-10T02:05:03;2.05;;;1.20;;
71959;SDS011;59832;51.146;14.024;2023-05-10T02:07:35;1.95;;;1.45;;
71959;SDS011;59832;51.146;14.024;2023-05-10T02:10:04;1.67;;;1.38;;
71959;SDS011;59832;51.146;14.024;2023-05-10T02:12:32;1.52;;;1.40;;
71959;SDS011;59832;51.146;14.024;2023-05-10T02:15:02;3.83;;;1.48;;
71959;SDS011;59832;51.146;14.024;2023-05-10T02:17:32;1.85;;;1.42;;
71959;SDS011;59832;51.146;14.024;2023-05-10T02:19:59;1.27;;;1.17;;
71959;SDS011;59832;51.146;14.024;2023-05-10T02:22:27;1.63;;;1.52;;
71959;SDS011;59832;51.146;14.024;2023-05-10T02:24:55;1.98;;;1.65;;
71959;SDS011;59832;51.146;14.024;2023-05-10T02:27:23;2.45;;;1.40;;
71959;SDS011;59832;51.146;14.024;2023-05-10T02:29:53;1.48;;;1.30;;
71959;SDS011;59832;51.146;14.024;2023-05-10T02:32:20;2.85;;;1.60;;
71959;SDS011;59832;51.146;14.024;2023-05-10T02:34:48;1.80;;;1.50;;
71959;SDS011;59832;51.146;14.024;2023-05-10T02:37:19;1.45;;;1.30;;
71959;SDS011;59832;51.146;14.024;2023-05-10T02:39:47;1.73;;;1.45;;
71959;SDS011;59832;51.146;14.024;2023-05-10T02:42:18;4.25;;;1.50;;
71959;SDS011;59832;51.146;14.024;2023-05-10T02:44:48;2.65;;;1.70;;
71959;SDS011;59832;51.146;14.024;2023-05-10T02:47:17;1.52;;;1.42;;
71959;SDS011;59832;51.146;14.024;2023-05-10T02:49:44;1.60;;;1.30;;
71959;SDS011;59832;51.146;14.024;2023-05-10T02:52:11;1.77;;;1.50;;
71959;SDS011;59832;51.146;14.024;2023-05-10T02:54:45;5.38;;;1.48;;
71959;SDS011;59832;51.146;14.024;2023-05-10T02:57:17;1.60;;;1.50;;
71959;SDS011;59832;51.146;14.024;2023-05-10T02:59:48;1.48;;;1.38;;
71959;SDS011;59832;51.146;14.024;2023-05-10T03:02:15;1.50;;;1.40;;
71959;SDS011;59832;51.146;14.024;2023-05-10T03:04:41;3.63;;;1.60;;
71959;SDS011;59832;51.146;14.024;2023-05-10T03:07:08;2.47;;;1.70;;
71959;SDS011;59832;51.146;14.024;2023-05-10T03:09:34;7.13;;;1.73;;
71959;SDS011;59832;51.146;14.024;2023-05-10T03:12:09;1.60;;;1.50;;
71959;SDS011;59832;51.146;14.024;2023-05-10T03:14:57;1.48;;;1.38;;
71959;SDS011;59832;51.146;14.024;2023-05-10T03:17:41;2.83;;;1.58;;
71959;SDS011;59832;51.146;14.024;2023-05-10T03:20:29;1.40;;;1.30;;
71959;SDS011;59832;51.146;14.024;2023-05-10T03:25:53;2.17;;;1.60;;
71959;SDS011;59832;51.146;14.024;2023-05-10T03:28:20;1.52;;;1.38;;
71959;SDS011;59832;51.146;14.024;2023-05-10T03:30:47;4.90;;;1.50;;
71959;SDS011;59832;51.146;14.024;2023-05-10T03:35:40;1.87;;;1.47;;
71959;SDS011;59832;51.146;14.024;2023-05-10T03:38:07;1.63;;;1.50;;
71959;SDS011;59832;51.146;14.024;2023-05-10T03:40:33;1.40;;;1.30;;
71959;SDS011;59832;51.146;14.024;2023-05-10T03:43:00;2.80;;;1.50;;
71959;SDS011;59832;51.146;14.024;2023-05-10T03:45:27;1.45;;;1.35;;
71959;SDS011;59832;51.146;14.024;2023-05-10T03:47:53;1.67;;;1.58;;
71959;SDS011;59832;51.146;14.024;2023-05-10T03:50:20;1.70;;;1.60;;
71959;SDS011;59832;51.146;14.024;2023-05-10T03:52:47;1.87;;;1.50;;
71959;SDS011;59832;51.146;14.024;2023-05-10T03:55:13;1.80;;;1.58;;
71959;SDS011;59832;51.146;14.024;2023-05-10T03:57:40;1.45;;;1.30;;
71959;SDS011;59832;51.146;14.024;2023-05-10T04:00:06;2.22;;;1.40;;
71959;SDS011;59832;51.146;14.024;2023-05-10T04:02:33;1.80;;;1.60;;
71959;SDS011;59832;51.146;14.024;2023-05-10T04:04:59;3.47;;;1.97;;
71959;SDS011;59832;51.146;14.024;2023-05-10T04:07:26;1.53;;;1.43;;
71959;SDS011;59832;51.146;14.024;2023-05-10T04:09:53;2.10;;;1.30;;
71959;SDS011;59832;51.146;14.024;2023-05-10T04:12:19;1.55;;;1.40;;
71959;SDS011;59832;51.146;14.024;2023-05-10T04:14:46;2.05;;;1.30;;
71959;SDS011;59832;51.146;14.024;2023-05-10T04:17:12;1.97;;;1.50;;
71959;SDS011;59832;51.146;14.024;2023-05-10T04:19:39;2.80;;;1.40;;
71959;SDS011;59832;51.146;14.024;2023-05-10T04:22:05;1.73;;;1.63;;
71959;SDS011;59832;51.146;14.024;2023-05-10T04:24:32;1.25;;;1.15;;
71959;SDS011;59832;51.146;14.024;2023-05-10T04:26:58;1.58;;;1.48;;
71959;SDS011;59832;51.146;14.024;2023-05-10T04:29:24;1.63;;;1.30;;
71959;SDS011;59832;51.146;14.024;2023-05-10T04:31:51;1.45;;;1.30;;
71959;SDS011;59832;51.146;14.024;2023-05-10T04:34:17;2.78;;;1.35;;
71959;SDS011;59832;51.146;14.024;2023-05-10T04:36:44;2.90;;;1.23;;
71959;SDS011;59832;51.146;14.024;2023-05-10T04:39:11;3.38;;;1.30;;
71959;SDS011;59832;51.146;14.024;2023-05-10T04:41:37;1.70;;;1.60;;
71959;SDS011;59832;51.146;14.024;2023-05-10T04:44:04;1.73;;;1.35;;
71959;SDS011;59832;51.146;14.024;2023-05-10T04:46:30;1.60;;;1.50;;
71959;SDS011;59832;51.146;14.024;2023-05-10T04:48:57;1.97;;;1.73;;
71959;SDS011;59832;51.146;14.024;2023-05-10T04:51:24;1.95;;;1.52;;
71959;SDS011;59832;51.146;14.024;2023-05-10T04:53:50;1.30;;;1.20;;
71959;SDS011;59832;51.146;14.024;2023-05-10T04:56:30;2.05;;;1.45;;
71959;SDS011;59832;51.146;14.024;2023-05-10T04:58:57;2.50;;;1.55;;
71959;SDS011;59832;51.146;14.024;2023-05-10T05:01:23;2.28;;;1.25;;
71959;SDS011;59832;51.146;14.024;2023-05-10T05:03:50;2.70;;;1.60;;
71959;SDS011;59832;51.146;14.024;2023-05-10T05:06:19;1.40;;;1.30;;
71959;SDS011;59832;51.146;14.024;2023-05-10T05:08:47;1.63;;;1.52;;
71959;SDS011;59832;51.146;14.024;2023-05-10T05:11:15;2.60;;;1.20;;
71959;SDS011;59832;51.146;14.024;2023-05-10T05:13:42;1.52;;;1.42;;
71959;SDS011;59832;51.146;14.024;2023-05-10T05:16:09;1.63;;;1.50;;
71959;SDS011;59832;51.146;14.024;2023-05-10T05:18:37;1.90;;;1.50;;
71959;SDS011;59832;51.146;14.024;2023-05-10T05:21:13;1.37;;;1.27;;
71959;SDS011;59832;51.146;14.024;2023-05-10T05:23:40;1.83;;;1.50;;
71959;SDS011;59832;51.146;14.024;2023-05-10T05:26:06;1.45;;;1.35;;
71959;SDS011;59832;51.146;14.024;2023-05-10T05:28:33;1.80;;;1.47;;
71959;SDS011;59832;51.146;14.024;2023-05-10T05:31:06;1.60;;;1.50;;
71959;SDS011;59832;51.146;14.024;2023-05-10T05:33:34;1.85;;;1.55;;
71959;SDS011;59832;51.146;14.024;2023-05-10T05:36:01;2.45;;;1.67;;
71959;SDS011;59832;51.146;14.024;2023-05-10T05:38:29;2.00;;;1.58;;
71959;SDS011;59832;51.146;14.024;2023-05-10T05:40:55;1.88;;;1.50;;
71959;SDS011;59832;51.146;14.024;2023-05-10T05:43:23;2.08;;;1.35;;
71959;SDS011;59832;51.146;14.024;2023-05-10T05:45:49;2.00;;;1.35;;
71959;SDS011;59832;51.146;14.024;2023-05-10T05:48:16;4.22;;;1.58;;
71959;SDS011;59832;51.146;14.024;2023-05-10T05:50:42;3.28;;;1.40;;
71959;SDS011;59832;51.146;14.024;2023-05-10T05:53:09;1.60;;;1.50;;
71959;SDS011;59832;51.146;14.024;2023-05-10T05:55:35;2.05;;;1.70;;
71959;SDS011;59832;51.146;14.024;2023-05-10T05:58:02;1.70;;;1.60;;
71959;SDS011;59832;51.146;14.024;2023-05-10T06:00:29;4.07;;;1.38;;
71959;SDS011;59832;51.146;14.024;2023-05-10T06:02:55;3.08;;;1.75;;
71959;SDS011;59832;51.146;14.024;2023-05-10T06:05:22;2.17;;;1.67;;
71959;SDS011;59832;51.146;14.024;2023-05-10T06:07:48;2.72;;;1.67;;
71959;SDS011;59832;51.146;14.024;2023-05-10T06:10:15;2.03;;;1.60;;
71959;SDS011;59832;51.146;14.024;2023-05-10T06:12:41;1.85;;;1.60;;
71959;SDS011;59832;51.146;14.024;2023-05-10T06:15:08;8.63;;;1.90;;
71959;SDS011;59832;51.146;14.024;2023-05-10T06:17:35;2.08;;;1.95;;
71959;SDS011;59832;51.146;14.024;2023-05-10T06:20:01;3.80;;;1.73;;
71959;SDS011;59832;51.146;14.024;2023-05-10T06:22:28;3.67;;;1.70;;
71959;SDS011;59832;51.146;14.024;2023-05-10T06:24:54;5.30;;;1.63;;
71959;SDS011;59832;51.146;14.024;2023-05-10T06:27:21;3.60;;;1.83;;
71959;SDS011;59832;51.146;14.024;2023-05-10T06:29:48;1.60;;;1.50;;
71959;SDS011;59832;51.146;14.024;2023-05-10T06:32:19;2.78;;;1.67;;
71959;SDS011;59832;51.146;14.024;2023-05-10T06:34:45;4.13;;;1.85;;
71959;SDS011;59832;51.146;14.024;2023-05-10T06:37:12;1.92;;;1.65;;
71959;SDS011;59832;51.146;14.024;2023-05-10T06:39:39;2.80;;;1.97;;
71959;SDS011;59832;51.146;14.024;2023-05-10T06:42:05;2.00;;;1.80;;
71959;SDS011;59832;51.146;14.024;2023-05-10T06:44:31;2.20;;;2.00;;
71959;SDS011;59832;51.146;14.024;2023-05-10T06:46:58;1.97;;;1.87;;
71959;SDS011;59832;51.146;14.024;2023-05-10T06:49:24;3.43;;;1.90;;
71959;SDS011;59832;51.146;14.024;2023-05-10T06:51:51;2.80;;;1.90;;
71959;SDS011;59832;51.146;14.024;2023-05-10T06:54:18;4.07;;;2.30;;
71959;SDS011;59832;51.146;14.024;2023-05-10T06:56:45;2.92;;;1.80;;
71959;SDS011;59832;51.146;14.024;2023-05-10T06:59:11;2.45;;;1.77;;
71959;SDS011;59832;51.146;14.024;2023-05-10T07:01:39;2.20;;;2.00;;
71959;SDS011;59832;51.146;14.024;2023-05-10T07:04:06;4.80;;;2.20;;
71959;SDS011;59832;51.146;14.024;2023-05-10T07:09:00;2.42;;;1.80;;
71959;SDS011;59832;51.146;14.024;2023-05-10T07:11:27;2.10;;;1.90;;
71959;SDS011;59832;51.146;14.024;2023-05-10T07:13:54;3.33;;;2.08;;
71959;SDS011;59832;51.146;14.024;2023-05-10T07:16:20;3.13;;;1.83;;
71959;SDS011;59832;51.146;14.024;2023-05-10T07:21:14;2.75;;;1.90;;
71959;SDS011;59832;51.146;14.024;2023-05-10T07:23:41;2.75;;;1.70;;
71959;SDS011;59832;51.146;14.024;2023-05-10T07:26:10;3.22;;;1.88;;
71959;SDS011;59832;51.146;14.024;2023-05-10T07:28:37;1.75;;;1.65;;
71959;SDS011;59832;51.146;14.024;2023-05-10T07:31:04;2.40;;;1.88;;
71959;SDS011;59832;51.146;14.024;2023-05-10T07:33:30;2.22;;;1.95;;
71959;SDS011;59832;51.146;14.024;2023-05-10T07:35:57;2.58;;;2.17;;
71959;SDS011;59832;51.146;14.024;2023-05-10T07:38:23;5.10;;;2.00;;
71959;SDS011;59832;51.146;14.024;2023-05-10T07:40:50;2.20;;;2.00;;
71959;SDS011;59832;51.146;14.024;2023-05-10T07:43:16;2.22;;;1.83;;
71959;SDS011;59832;51.146;14.024;2023-05-10T07:45:43;2.40;;;2.03;;
71959;SDS011;59832;51.146;14.024;2023-05-10T07:48:09;3.53;;;2.03;;
71959;SDS011;59832;51.146;14.024;2023-05-10T07:50:36;2.65;;;2.15;;
71959;SDS011;59832;51.146;14.024;2023-05-10T07:53:02;3.08;;;1.95;;
71959;SDS011;59832;51.146;14.024;2023-05-10T07:55:29;1.90;;;1.80;;
71959;SDS011;59832;51.146;14.024;2023-05-10T07:57:56;2.22;;;2.03;;
71959;SDS011;59832;51.146;14.024;2023-05-10T08:00:22;2.13;;;2.00;;
71959;SDS011;59832;51.146;14.024;2023-05-10T08:02:48;2.17;;;1.97;;
71959;SDS011;59832;51.146;14.024;2023-05-10T08:05:15;2.78;;;1.90;;
71959;SDS011;59832;51.146;14.024;2023-05-10T08:07:42;3.28;;;1.85;;
71959;SDS011;59832;51.146;14.024;2023-05-10T08:10:09;2.20;;;2.00;;
71959;SDS011;59832;51.146;14.024;2023-05-10T08:12:37;2.38;;;1.80;;
71959;SDS011;59832;51.146;14.024;2023-05-10T08:15:04;2.17;;;1.92;;
71959;SDS011;59832;51.146;14.024;2023-05-10T08:22:25;3.50;;;1.75;;
71959;SDS011;59832;51.146;14.024;2023-05-10T08:24:51;2.67;;;2.00;;
71959;SDS011;59832;51.146;14.024;2023-05-10T08:27:18;2.15;;;1.92;;
71959;SDS011;59832;51.146;14.024;2023-05-10T08:29:44;3.90;;;1.88;;
71959;SDS011;59832;51.146;14.024;2023-05-10T08:32:15;2.03;;;1.92;;
71959;SDS011;59832;51.146;14.024;2023-05-10T08:34:42;3.42;;;1.80;;
71959;SDS011;59832;51.146;14.024;2023-05-10T08:37:08;2.53;;;2.00;;
71959;SDS011;59832;51.146;14.024;2023-05-10T08:39:36;2.42;;;2.22;;
71959;SDS011;59832;51.146;14.024;2023-05-10T08:42:04;2.10;;;2.00;;
71959;SDS011;59832;51.146;14.024;2023-05-10T08:44:32;2.20;;;2.00;;
71959;SDS011;59832;51.146;14.024;2023-05-10T08:47:00;2.17;;;2.00;;
71959;SDS011;59832;51.146;14.024;2023-05-10T08:49:30;2.53;;;2.22;;
71959;SDS011;59832;51.146;14.024;2023-05-10T08:51:57;3.92;;;2.15;;
71959;SDS011;59832;51.146;14.024;2023-05-10T08:54:27;3.92;;;2.13;;
71959;SDS011;59832;51.146;14.024;2023-05-10T08:56:54;2.30;;;2.00;;
71959;SDS011;59832;51.146;14.024;2023-05-10T08:59:20;4.22;;;2.20;;
71959;SDS011;59832;51.146;14.024;2023-05-10T09:01:47;2.67;;;2.33;;
71959;SDS011;59832;51.146;14.024;2023-05-10T09:04:15;2.13;;;1.92;;
71959;SDS011;59832;51.146;14.024;2023-05-10T09:06:42;1.80;;;1.70;;
71959;SDS011;59832;51.146;14.024;2023-05-10T09:09:08;2.30;;;2.10;;
71959;SDS011;59832;51.146;14.024;2023-05-10T09:11:35;2.00;;;1.80;;
71959;SDS011;59832;51.146;14.024;2023-05-10T09:14:01;3.33;;;2.10;;
71959;SDS011;59832;51.146;14.024;2023-05-10T09:16:28;1.88;;;1.77;;
71959;SDS011;59832;51.146;14.024;2023-05-10T09:18:55;2.05;;;1.92;;
71959;SDS011;59832;51.146;14.024;2023-05-10T09:21:22;4.97;;;1.95;;
71959;SDS011;59832;51.146;14.024;2023-05-10T09:23:48;2.58;;;2.20;;
71959;SDS011;59832;51.146;14.024;2023-05-10T09:26:16;2.03;;;1.92;;
71959;SDS011;59832;51.146;14.024;2023-05-10T09:28:53;2.38;;;2.15;;
71959;SDS011;59832;51.146;14.024;2023-05-10T09:31:22;2.83;;;2.00;;
71959;SDS011;59832;51.146;14.024;2023-05-10T09:33:50;2.10;;;1.95;;
71959;SDS011;59832;51.146;14.024;2023-05-10T09:36:17;2.72;;;2.10;;
71959;SDS011;59832;51.146;14.024;2023-05-10T09:38:47;2.00;;;1.90;;
71959;SDS011;59832;51.146;14.024;2023-05-10T09:41:18;2.17;;;1.77;;
71959;SDS011;59832;51.146;14.024;2023-05-10T09:43:46;1.80;;;1.70;;
71959;SDS011;59832;51.146;14.024;2023-05-10T09:46:14;1.85;;;1.70;;
71959;SDS011;59832;51.146;14.024;2023-05-10T09:48:42;2.28;;;2.10;;
71959;SDS011;59832;51.146;14.024;2023-05-10T09:51:21;2.30;;;2.05;;
71959;SDS011;59832;51.146;14.024;2023-05-10T09:54:08;2.10;;;1.90;;
71959;SDS011;59832;51.146;14.024;2023-05-10T09:59:05;2.20;;;2.00;;
71959;SDS011;59832;51.146;14.024;2023-05-10T10:01:33;2.95;;;1.90;;
71959;SDS011;59832;51.146;14.024;2023-05-10T10:04:05;2.20;;;2.10;;
71959;SDS011;59832;51.146;14.024;2023-05-10T10:06:36;5.88;;;1.92;;
71959;SDS011;59832;51.146;14.024;2023-05-10T10:09:04;3.05;;;1.90;;
71959;SDS011;59832;51.146;14.024;2023-05-10T10:11:33;2.13;;;1.92;;
71959;SDS011;59832;51.146;14.024;2023-05-10T10:14:00;2.25;;;2.08;;
71959;SDS011;59832;51.146;14.024;2023-05-10T10:16:30;2.55;;;2.35;;
71959;SDS011;59832;51.146;14.024;2023-05-10T10:18:58;2.38;;;2.00;;
71959;SDS011;59832;51.146;14.024;2023-05-10T10:21:25;3.90;;;1.95;;
71959;SDS011;59832;51.146;14.024;2023-05-10T10:23:51;2.63;;;2.05;;
71959;SDS011;59832;51.146;14.024;2023-05-10T10:26:19;2.28;;;1.95;;
71959;SDS011;59832;51.146;14.024;2023-05-10T10:31:34;2.83;;;1.92;;
71959;SDS011;59832;51.146;14.024;2023-05-10T10:36:39;3.80;;;2.00;;
71959;SDS011;59832;51.146;14.024;2023-05-10T10:39:15;1.67;;;1.50;;
71959;SDS011;59832;51.146;14.024;2023-05-10T10:41:49;2.10;;;1.90;;
71959;SDS011;59832;51.146;14.024;2023-05-10T10:47:02;2.22;;;2.00;;
71959;SDS011;59832;51.146;14.024;2023-05-10T10:49:32;1.80;;;1.70;;
71959;SDS011;59832;51.146;14.024;2023-05-10T10:57:43;2.80;;;1.80;;
71959;SDS011;59832;51.146;14.024;2023-05-10T11:00:20;2.80;;;2.10;;
71959;SDS011;59832;51.146;14.024;2023-05-10T11:02:51;2.83;;;2.10;;
71959;SDS011;59832;51.146;14.024;2023-05-10T11:05:26;3.22;;;2.10;;
71959;SDS011;59832;51.146;14.024;2023-05-10T11:08:11;2.75;;;2.20;;
71959;SDS011;59832;51.146;14.024;2023-05-10T11:10:49;1.92;;;1.83;;
71959;SDS011;59832;51.146;14.024;2023-05-10T11:13:26;1.92;;;1.83;;
71959;SDS011;59832;51.146;14.024;2023-05-10T11:18:24;2.47;;;2.28;;
71959;SDS011;59832;51.146;14.024;2023-05-10T11:20:52;3.55;;;1.73;;
71959;SDS011;59832;51.146;14.024;2023-05-10T11:26:25;2.38;;;2.17;;
71959;SDS011;59832;51.146;14.024;2023-05-10T11:28:55;3.95;;;1.73;;
71959;SDS011;59832;51.146;14.024;2023-05-10T11:31:22;2.17;;;2.00;;
71959;SDS011;59832;51.146;14.024;2023-05-10T11:33:50;2.10;;;1.90;;
71959;SDS011;59832;51.146;14.024;2023-05-10T11:36:19;3.05;;;1.85;;
71959;SDS011;59832;51.146;14.024;2023-05-10T11:38:47;2.85;;;1.70;;
71959;SDS011;59832;51.146;14.024;2023-05-10T11:41:15;2.17;;;1.98;;
71959;SDS011;59832;51.146;14.024;2023-05-10T11:43:43;2.28;;;2.10;;
71959;SDS011;59832;51.146;14.024;2023-05-10T11:46:12;2.30;;;2.10;;
71959;SDS011;59832;51.146;14.024;2023-05-10T11:48:39;4.10;;;1.90;;
71959;SDS011;59832;51.146;14.024;2023-05-10T11:51:06;3.65;;;2.00;;
71959;SDS011;59832;51.146;14.024;2023-05-10T11:53:33;2.17;;;1.85;;
71959;SDS011;59832;51.146;14.024;2023-05-10T11:56:04;3.10;;;1.67;;
71959;SDS011;59832;51.146;14.024;2023-05-10T11:58:32;2.45;;;2.00;;
71959;SDS011;59832;51.146;14.024;2023-05-10T12:00:59;2.15;;;1.80;;
71959;SDS011;59832;51.146;14.024;2023-05-10T12:03:27;2.25;;;1.90;;
71959;SDS011;59832;51.146;14.024;2023-05-10T12:05:54;2.28;;;2.00;;
71959;SDS011;59832;51.146;14.024;2023-05-10T12:10:49;2.30;;;2.10;;
71959;SDS011;59832;51.146;14.024;2023-05-10T12:13:16;2.00;;;1.90;;
71959;SDS011;59832;51.146;14.024;2023-05-10T12:18:13;2.17;;;2.00;;
71959;SDS011;59832;51.146;14.024;2023-05-10T12:20:41;5.85;;;1.92;;
71959;SDS011;59832;51.146;14.024;2023-05-10T12:23:08;2.10;;;1.90;;
71959;SDS011;59832;51.146;14.024;2023-05-10T12:25:36;2.75;;;1.90;;
71959;SDS011;59832;51.146;14.024;2023-05-10T12:28:04;3.22;;;1.77;;
71959;SDS011;59832;51.146;14.024;2023-05-10T12:30:33;2.47;;;1.77;;
71959;SDS011;59832;51.146;14.024;2023-05-10T12:33:08;1.95;;;1.50;;
71959;SDS011;59832;51.146;14.024;2023-05-10T12:35:44;1.85;;;1.75;;
71959;SDS011;59832;51.146;14.024;2023-05-10T12:38:24;1.98;;;1.77;;
71959;SDS011;59832;51.146;14.024;2023-05-10T12:40:56;3.30;;;1.70;;
71959;SDS011;59832;51.146;14.024;2023-05-10T12:43:24;1.98;;;1.50;;
71959;SDS011;59832;51.146;14.024;2023-05-10T12:45:50;2.53;;;1.88;;
71959;SDS011;59832;51.146;14.024;2023-05-10T12:48:17;2.35;;;1.83;;
71959;SDS011;59832;51.146;14.024;2023-05-10T12:50:44;1.90;;;1.58;;
71959;SDS011;59832;51.146;14.024;2023-05-10T12:53:11;1.95;;;1.77;;
71959;SDS011;59832;51.146;14.024;2023-05-10T12:55:39;1.75;;;1.65;;
71959;SDS011;59832;51.146;14.024;2023-05-10T12:58:06;1.50;;;1.40;;
71959;SDS011;59832;51.146;14.024;2023-05-10T13:00:33;1.92;;;1.60;;
71959;SDS011;59832;51.146;14.024;2023-05-10T13:02:59;1.88;;;1.70;;
71959;SDS011;59832;51.146;14.024;2023-05-10T13:05:26;2.00;;;1.77;;
71959;SDS011;59832;51.146;14.024;2023-05-10T13:07:52;4.22;;;2.13;;
71959;SDS011;59832;51.146;14.024;2023-05-10T13:10:18;1.80;;;1.67;;
71959;SDS011;59832;51.146;14.024;2023-05-10T13:12:45;2.10;;;1.73;;
71959;SDS011;59832;51.146;14.024;2023-05-10T13:15:11;1.92;;;1.83;;
71959;SDS011;59832;51.146;14.024;2023-05-10T13:17:38;1.70;;;1.60;;
71959;SDS011;59832;51.146;14.024;2023-05-10T13:20:06;2.15;;;1.60;;
71959;SDS011;59832;51.146;14.024;2023-05-10T13:22:33;1.75;;;1.60;;
71959;SDS011;59832;51.146;14.024;2023-05-10T13:25:05;1.60;;;1.50;;
71959;SDS011;59832;51.146;14.024;2023-05-10T13:27:32;4.28;;;1.77;;
71959;SDS011;59832;51.146;14.024;2023-05-10T13:29:58;2.28;;;1.80;;
71959;SDS011;59832;51.146;14.024;2023-05-10T13:32:25;3.30;;;2.05;;
71959;SDS011;59832;51.146;14.024;2023-05-10T13:34:52;1.98;;;1.80;;
71959;SDS011;59832;51.146;14.024;2023-05-10T13:37:19;2.70;;;1.50;;
71959;SDS011;59832;51.146;14.024;2023-05-10T13:39:45;1.80;;;1.70;;
71959;SDS011;59832;51.146;14.024;2023-05-10T13:42:12;1.80;;;1.70;;
71959;SDS011;59832;51.146;14.024;2023-05-10T13:44:38;2.15;;;2.00;;
71959;SDS011;59832;51.146;14.024;2023-05-10T13:47:05;1.75;;;1.65;;
71959;SDS011;59832;51.146;14.024;2023-05-10T13:49:32;2.25;;;1.52;;
71959;SDS011;59832;51.146;14.024;2023-05-10T13:52:00;3.80;;;1.77;;
71959;SDS011;59832;51.146;14.024;2023-05-10T13:54:33;1.83;;;1.55;;
71959;SDS011;59832;51.146;14.024;2023-05-10T13:57:00;2.22;;;1.88;;
71959;SDS011;59832;51.146;14.024;2023-05-10T13:59:26;1.90;;;1.80;;
71959;SDS011;59832;51.146;14.024;2023-05-10T14:01:53;2.00;;;1.90;;
71959;SDS011;59832;51.146;14.024;2023-05-10T14:04:20;1.88;;;1.77;;
71959;SDS011;59832;51.146;14.024;2023-05-10T14:06:46;2.17;;;1.70;;
71959;SDS011;59832;51.146;14.024;2023-05-10T14:09:17;1.90;;;1.80;;
71959;SDS011;59832;51.146;14.024;2023-05-10T14:11:44;2.58;;;1.60;;
71959;SDS011;59832;51.146;14.024;2023-05-10T14:16:42;2.72;;;1.60;;
71959;SDS011;59832;51.146;14.024;2023-05-10T14:19:10;2.00;;;1.75;;
71959;SDS011;59832;51.146;14.024;2023-05-10T14:21:37;1.70;;;1.60;;
71959;SDS011;59832;51.146;14.024;2023-05-10T14:24:04;1.80;;;1.70;;
71959;SDS011;59832;51.146;14.024;2023-05-10T14:26:31;1.95;;;1.85;;
71959;SDS011;59832;51.146;14.024;2023-05-10T14:28:57;1.98;;;1.70;;
71959;SDS011;59832;51.146;14.024;2023-05-10T14:31:25;3.05;;;1.60;;
71959;SDS011;59832;51.146;14.024;2023-05-10T14:33:52;4.32;;;1.92;;
71959;SDS011;59832;51.146;14.024;2023-05-10T14:36:19;2.55;;;1.60;;
71959;SDS011;59832;51.146;14.024;2023-05-10T14:38:45;1.98;;;1.83;;
71959;SDS011;59832;51.146;14.024;2023-05-10T14:41:12;3.38;;;1.67;;
71959;SDS011;59832;51.146;14.024;2023-05-10T14:43:40;1.77;;;1.67;;
71959;SDS011;59832;51.146;14.024;2023-05-10T14:46:07;2.15;;;1.67;;
71959;SDS011;59832;51.146;14.024;2023-05-10T14:48:34;2.53;;;1.80;;
71959;SDS011;59832;51.146;14.024;2023-05-10T14:51:01;4.28;;;1.80;;
71959;SDS011;59832;51.146;14.024;2023-05-10T14:53:28;1.85;;;1.75;;
71959;SDS011;59832;51.146;14.024;2023-05-10T14:55:54;2.33;;;1.80;;
71959;SDS011;59832;51.146;14.024;2023-05-10T14:58:21;1.98;;;1.88;;
71959;SDS011;59832;51.146;14.024;2023-05-10T15:00:47;1.95;;;1.85;;
71959;SDS011;59832;51.146;14.024;2023-05-10T15:03:15;1.85;;;1.60;;
71959;SDS011;59832;51.146;14.024;2023-05-10T15:05:42;1.98;;;1.88;;
71959;SDS011;59832;51.146;14.024;2023-05-10T15:08:09;1.80;;;1.70;;
71959;SDS011;59832;51.146;14.024;2023-05-10T15:10:35;3.83;;;1.80;;
71959;SDS011;59832;51.146;14.024;2023-05-10T15:13:03;1.70;;;1.60;;
71959;SDS011;59832;51.146;14.024;2023-05-10T15:15:30;1.90;;;1.80;;
71959;SDS011;59832;51.146;14.024;2023-05-10T15:17:57;7.65;;;1.95;;
71959;SDS011;59832;51.146;14.024;2023-05-10T15:20:24;4.32;;;1.80;;
71959;SDS011;59832;51.146;14.024;2023-05-10T15:22:51;3.63;;;1.70;;
71959;SDS011;59832;51.146;14.024;2023-05-10T15:25:17;2.67;;;1.87;;
71959;SDS011;59832;51.146;14.024;2023-05-10T15:27:44;2.08;;;1.80;;
71959;SDS011;59832;51.146;14.024;2023-05-10T15:30:11;2.58;;;1.40;;
71959;SDS011;59832;51.146;14.024;2023-05-10T15:32:38;1.73;;;1.63;;